sensor_id;sensor_type;location;lat;lon;timestamp;pressure;altitude;pressure_sealevel;temperature;humidity
10064;BME280;5071;52.360;13.134;2022-12-05T00:02:20;101413.47;;;2.62;100.00
10064;BME280;5071;52.360;13.134;2022-12-05T00:07:24;101417.16;;;2.67;100.00
10064;BME280;5071;52.360;13.134;2022-12-05T00:12:26;101418.78;;;2.64;100.00
10064;BME280;5071;52.360;13.134;2022-12-05T00:17:30;101408.34;;;2.65;100.00
10064;BME280;5071;52.360;13.134;2022-12-05T00:22:35;101410.88;;;2.62;100.00
10064;BME280;5071;52.360;13.134;2022-12-05T00:27:37;101389.06;;;2.63;100.00
10064;BME280;5071;52.360;13.134;2022-12-05T00:32:39;101390.81;;;2.64;100.00
10064;BME280;5071;52.360;13.134;2022-12-05T00:37:43;101410.09;;;2.66;100.00
10064;BME280;5071;52.360;13.134;2022-12-05T00:42:45;101395.28;;;2.67;100.00
10064;BME280;5071;52.360;13.134;2022-12-05T00:47:53;101406.47;;;2.61;100.00
10064;BME280;5071;52.360;13.134;2022-12-05T00:52:56;101412.72;;;2.66;100.00
10064;BME280;5071;52.360;13.134;2022-12-05T00:57:58;101401.31;;;2.64;100.00
10064;BME280;5071;52.360;13.134;2022-12-05T01:03:00;101403.22;;;2.70;100.00
10064;BME280;5071;52.360;13.134;2022-12-05T01:08:04;101405.66;;;2.64;100.00
10064;BME280;5071;52.360;13.134;2022-12-05T01:13:06;101394.59;;;2.72;100.00
10064;BME280;5071;52.360;13.134;2022-12-05T01:18:07;101401.31;;;2.64;100.00
10064;BME280;5071;52.360;13.134;2022-12-05T01:23:11;101395.19;;;2.64;100.00
10064;BME280;5071;52.360;13.134;2022-12-05T01:28:15;101380.31;;;2.63;100.00
10064;BME280;5071;52.360;13.134;2022-12-05T01:33:17;101381.25;;;2.65;100.00
10064;BME280;5071;52.360;13.134;2022-12-05T01:38:20;101375.31;;;2.72;100.00
10064;BME280;5071;52.360;13.134;2022-12-05T01:43:22;101376.03;;;2.66;100.00
10064;BME280;5071;52.360;13.134;2022-12-05T01:48:27;101370.94;;;2.71;100.00
10064;BME280;5071;52.360;13.134;2022-12-05T01:53:32;101366.41;;;2.65;100.00
10064;BME280;5071;52.360;13.134;2022-12-05T01:58:36;101372.72;;;2.72;100.00
10064;BME280;5071;52.360;13.134;2022-12-05T02:03:40;101380.56;;;2.70;100.00
10064;BME280;5071;52.360;13.134;2022-12-05T02:08:44;101384.94;;;2.71;100.00
10064;BME280;5071;52.360;13.134;2022-12-05T02:14:08;101377.81;;;2.67;100.00
10064;BME280;5071;52.360;13.134;2022-12-05T02:19:41;101384.00;;;2.69;100.00
10064;BME280;5071;52.360;13.134;2022-12-05T02:25:16;101374.31;;;2.67;100.00
10064;BME280;5071;52.360;13.134;2022-12-05T02:30:25;101383.41;;;2.78;100.00
10064;BME280;5071;52.360;13.134;2022-12-05T02:35:36;101384.06;;;2.71;100.00
10064;BME280;5071;52.360;13.134;2022-12-05T02:40:46;101378.09;;;2.77;100.00
10064;BME280;5071;52.360;13.134;2022-12-05T02:45:53;101372.00;;;2.78;100.00
10064;BME280;5071;52.360;13.134;2022-12-05T02:50:58;101369.38;;;2.78;100.00
10064;BME280;5071;52.360;13.134;2022-12-05T02:56:04;101363.31;;;2.79;100.00
10064;BME280;5071;52.360;13.134;2022-12-05T03:01:08;101350.84;;;2.71;100.00
10064;BME280;5071;52.360;13.134;2022-12-05T03:06:13;101355.31;;;2.74;100.00
10064;BME280;5071;52.360;13.134;2022-12-05T03:11:16;101358.06;;;2.79;100.00
10064;BME280;5071;52.360;13.134;2022-12-05T03:16:24;101359.91;;;2.83;100.00
10064;BME280;5071;52.360;13.134;2022-12-05T03:21:32;101360.56;;;2.74;100.00
10064;BME280;5071;52.360;13.134;2022-12-05T03:26:45;101360.78;;;2.82;100.00
10064;BME280;5071;52.360;13.134;2022-12-05T03:31:59;101354.63;;;2.80;100.00
10064;BME280;5071;52.360;13.134;2022-12-05T03:37:06;101354.63;;;2.80;100.00
10064;BME280;5071;52.360;13.134;2022-12-05T03:42:12;101356.38;;;2.81;100.00
10064;BME280;5071;52.360;13.134;2022-12-05T03:47:20;101340.53;;;2.76;100.00
10064;BME280;5071;52.360;13.134;2022-12-05T03:52:28;101346.91;;;2.86;100.00
10064;BME280;5071;52.360;13.134;2022-12-05T03:57:55;101353.69;;;2.79;100.00
10064;BME280;5071;52.360;13.134;2022-12-05T04:03:03;101363.47;;;2.85;100.00
10064;BME280;5071;52.360;13.134;2022-12-05T04:08:08;101363.47;;;2.85;100.00
10064;BME280;5071;52.360;13.134;2022-12-05T04:13:16;101360.03;;;2.86;100.00
10064;BME280;5071;52.360;13.134;2022-12-05T04:18:23;101360.84;;;2.85;100.00
10064;BME280;5071;52.360;13.134;2022-12-05T04:23:26;101356.47;;;2.84;100.00
10064;BME280;5071;52.360;13.134;2022-12-05T04:28:31;101349.44;;;2.83;100.00
10064;BME280;5071;52.360;13.134;2022-12-05T04:33:41;101356.38;;;2.81;100.00
10064;BME280;5071;52.360;13.134;2022-12-05T04:38:47;101343.38;;;2.84;100.00
10064;BME280;5071;52.360;13.134;2022-12-05T04:43:53;101355.72;;;2.88;100.00
10064;BME280;5071;52.360;13.134;2022-12-05T04:48:59;101352.00;;;2.80;100.00
10064;BME280;5071;52.360;13.134;2022-12-05T04:54:09;101354.06;;;2.91;100.00
10064;BME280;5071;52.360;13.134;2022-12-05T04:59:13;101359.22;;;2.88;100.00
10064;BME280;5071;52.360;13.134;2022-12-05T05:04:21;101362.06;;;2.96;100.00
10064;BME280;5071;52.360;13.134;2022-12-05T05:09:26;101351.34;;;2.88;100.00
10064;BME280;5071;52.360;13.134;2022-12-05T05:14:28;101361.00;;;2.89;100.00
10064;BME280;5071;52.360;13.134;2022-12-05T05:19:31;101358.66;;;3.00;100.00
10064;BME280;5071;52.360;13.134;2022-12-05T05:24:33;101360.03;;;2.86;100.00
10064;BME280;5071;52.360;13.134;2022-12-05T05:29:35;101362.53;;;2.83;100.00
10064;BME280;5071;52.360;13.134;2022-12-05T05:34:39;101356.38;;;2.81;100.00
10064;BME280;5071;52.360;13.134;2022-12-05T05:39:41;101356.63;;;2.90;100.00
10064;BME280;5071;52.360;13.134;2022-12-05T05:44:43;101373.41;;;2.95;100.00
10064;BME280;5071;52.360;13.134;2022-12-05T05:49:46;101363.47;;;2.85;100.00
10064;BME280;5071;52.360;13.134;2022-12-05T05:54:48;101371.34;;;2.85;100.00
10064;BME280;5071;52.360;13.134;2022-12-05T05:59:51;101366.19;;;2.88;100.00
10064;BME280;5071;52.360;13.134;2022-12-05T06:04:54;101372.47;;;2.93;100.00
10064;BME280;5071;52.360;13.134;2022-12-05T06:09:56;101376.78;;;2.91;100.00
10064;BME280;5071;52.360;13.134;2022-12-05T06:14:59;101377.44;;;2.84;100.00
10064;BME280;5071;52.360;13.134;2022-12-05T06:20:03;101377.50;;;2.87;100.00
10064;BME280;5071;52.360;13.134;2022-12-05T06:25:06;101379.47;;;2.94;100.00
10064;BME280;5071;52.360;13.134;2022-12-05T06:30:09;101384.00;;;3.00;100.00
10064;BME280;5071;52.360;13.134;2022-12-05T06:35:12;101386.69;;;3.01;100.00
10064;BME280;5071;52.360;13.134;2022-12-05T06:40:15;101388.38;;;2.99;100.00
10064;BME280;5071;52.360;13.134;2022-12-05T06:45:17;101392.75;;;3.00;100.00
10064;BME280;5071;52.360;13.134;2022-12-05T06:50:20;101400.47;;;2.94;100.00
10064;BME280;5071;52.360;13.134;2022-12-05T06:55:22;101404.09;;;2.99;100.00
10064;BME280;5071;52.360;13.134;2022-12-05T07:00:24;101412.97;;;3.03;100.00
10064;BME280;5071;52.360;13.134;2022-12-05T07:05:28;101403.50;;;3.08;100.00
10064;BME280;5071;52.360;13.134;2022-12-05T07:10:31;101414.44;;;2.93;100.00
10064;BME280;5071;52.360;13.134;2022-12-05T07:15:33;101410.06;;;2.94;100.00
10064;BME280;5071;52.360;13.134;2022-12-05T07:20:36;101409.19;;;2.93;100.00
10064;BME280;5071;52.360;13.134;2022-12-05T07:26:03;101416.19;;;2.94;100.00
10064;BME280;5071;52.360;13.134;2022-12-05T07:31:07;101403.22;;;2.99;100.00
10064;BME280;5071;52.360;13.134;2022-12-05T07:36:13;101406.78;;;3.01;100.00
10064;BME280;5071;52.360;13.134;2022-12-05T07:41:19;101410.13;;;2.95;100.00
10064;BME280;5071;52.360;13.134;2022-12-05T07:46:23;101413.66;;;2.97;100.00
10064;BME280;5071;52.360;13.134;2022-12-05T07:51:27;101411.13;;;3.00;100.00
10064;BME280;5071;52.360;13.134;2022-12-05T07:56:29;101400.38;;;2.91;100.00
10064;BME280;5071;52.360;13.134;2022-12-05T08:01:32;101405.69;;;2.94;100.00
10064;BME280;5071;52.360;13.134;2022-12-05T08:06:35;101418.84;;;2.96;100.00
10064;BME280;5071;52.360;13.134;2022-12-05T08:11:38;101421.38;;;2.92;100.00
10064;BME280;5071;52.360;13.134;2022-12-05T08:16:40;101419.84;;;2.99;100.00
10064;BME280;5071;52.360;13.134;2022-12-05T08:21:44;101416.34;;;3.00;100.00
10064;BME280;5071;52.360;13.134;2022-12-05T08:26:46;101425.25;;;3.05;100.00
10064;BME280;5071;52.360;13.134;2022-12-05T08:31:50;101425.19;;;3.02;100.00
10064;BME280;5071;52.360;13.134;2022-12-05T08:36:54;101422.50;;;3.01;100.00
10064;BME280;5071;52.360;13.134;2022-12-05T08:41:56;101421.97;;;3.13;100.00
10064;BME280;5071;52.360;13.134;2022-12-05T08:46:58;101416.56;;;3.06;100.00
10064;BME280;5071;52.360;13.134;2022-12-05T08:52:02;101418.19;;;3.03;100.00
10064;BME280;5071;52.360;13.134;2022-12-05T08:57:04;101419.22;;;3.08;100.00
10064;BME280;5071;52.360;13.134;2022-12-05T09:02:07;101428.81;;;3.07;100.00
10064;BME280;5071;52.360;13.134;2022-12-05T09:07:11;101427.94;;;3.07;100.00
10064;BME280;5071;52.360;13.134;2022-12-05T09:12:13;101427.94;;;3.07;100.00
10064;BME280;5071;52.360;13.134;2022-12-05T09:17:15;101434.00;;;3.04;100.00
10064;BME280;5071;52.360;13.134;2022-12-05T09:22:18;101419.94;;;3.02;100.00
10064;BME280;5071;52.360;13.134;2022-12-05T09:27:21;101436.63;;;3.06;100.00
10064;BME280;5071;52.360;13.134;2022-12-05T09:32:23;101428.81;;;3.07;100.00
10064;BME280;5071;52.360;13.134;2022-12-05T09:37:27;101437.66;;;3.11;100.00
10064;BME280;5071;52.360;13.134;2022-12-05T09:42:51;101433.28;;;3.11;100.00
10064;BME280;5071;52.360;13.134;2022-12-05T09:47:58;101422.56;;;3.02;100.00
10064;BME280;5071;52.360;13.134;2022-12-05T09:53:11;101420.88;;;3.04;100.00
10064;BME280;5071;52.360;13.134;2022-12-05T09:58:24;101421.84;;;3.08;100.00
10064;BME280;5071;52.360;13.134;2022-12-05T10:03:32;101434.06;;;3.07;100.00
10064;BME280;5071;52.360;13.134;2022-12-05T10:08:50;101423.41;;;3.01;100.00
10064;BME280;5071;52.360;13.134;2022-12-05T10:14:03;101434.00;;;3.04;100.00
10064;BME280;5071;52.360;13.134;2022-12-05T10:19:12;101418.31;;;3.07;100.00
10064;BME280;5071;52.360;13.134;2022-12-05T10:24:29;101414.94;;;3.11;100.00
10064;BME280;5071;52.360;13.134;2022-12-05T10:29:36;101422.75;;;3.08;100.00
10064;BME280;5071;52.360;13.134;2022-12-05T10:34:41;101411.59;;;3.17;100.00
10064;BME280;5071;52.360;13.134;2022-12-05T10:39:46;101400.88;;;3.09;100.00
10064;BME280;5071;52.360;13.134;2022-12-05T10:44:53;101414.22;;;3.16;100.00
10064;BME280;5071;52.360;13.134;2022-12-05T10:50:01;101414.16;;;3.14;100.00
10064;BME280;5071;52.360;13.134;2022-12-05T10:55:06;101411.59;;;3.17;100.00
10064;BME280;5071;52.360;13.134;2022-12-05T11:00:10;101407.53;;;3.27;100.00
10064;BME280;5071;52.360;13.134;2022-12-05T11:05:26;101407.78;;;3.36;100.00
10064;BME280;5071;52.360;13.134;2022-12-05T11:10:33;101408.72;;;3.38;100.00
10064;BME280;5071;52.360;13.134;2022-12-05T11:15:43;101411.34;;;3.38;100.00
10064;BME280;5071;52.360;13.134;2022-12-05T11:20:46;101414.06;;;3.43;100.00
10064;BME280;5071;52.360;13.134;2022-12-05T11:25:49;101410.41;;;3.36;100.00
10064;BME280;5071;52.360;13.134;2022-12-05T11:30:56;101406.25;;;3.44;100.00
10064;BME280;5071;52.360;13.134;2022-12-05T11:36:04;101400.69;;;3.34;100.00
10064;BME280;5071;52.360;13.134;2022-12-05T11:41:33;101389.28;;;3.31;100.00
10064;BME280;5071;52.360;13.134;2022-12-05T11:46:47;101399.16;;;3.40;100.00
10064;BME280;5071;52.360;13.134;2022-12-05T11:52:01;101390.31;;;3.37;100.00
10064;BME280;5071;52.360;13.134;2022-12-05T11:57:17;101387.69;;;3.37;100.00
10064;BME280;5071;52.360;13.134;2022-12-05T12:02:34;101386.78;;;3.36;100.00
10064;BME280;5071;52.360;13.134;2022-12-05T12:07:53;101393.84;;;3.39;100.00
10064;BME280;5071;52.360;13.134;2022-12-05T12:13:11;101385.78;;;3.31;100.00
10064;BME280;5071;52.360;13.134;2022-12-05T12:18:25;101384.91;;;3.30;100.00
10064;BME280;5071;52.360;13.134;2022-12-05T12:23:44;101380.44;;;3.28;100.00
10064;BME280;5071;52.360;13.134;2022-12-05T12:28:58;101384.09;;;3.33;100.00
10064;BME280;5071;52.360;13.134;2022-12-05T12:34:18;101389.41;;;3.36;100.00
10064;BME280;5071;52.360;13.134;2022-12-05T12:39:35;101386.91;;;3.41;100.00
10064;BME280;5071;52.360;13.134;2022-12-05T12:44:56;101379.09;;;3.42;100.00
10064;BME280;5071;52.360;13.134;2022-12-05T12:50:08;101373.16;;;3.49;100.00
10064;BME280;5071;52.360;13.134;2022-12-05T12:55:19;101363.84;;;3.61;100.00
10064;BME280;5071;52.360;13.134;2022-12-05T13:00:30;101360.34;;;3.62;100.00
10064;BME280;5071;52.360;13.134;2022-12-05T13:05:40;101352.69;;;3.71;100.00
10064;BME280;5071;52.360;13.134;2022-12-05T13:10:45;101362.28;;;3.69;100.00
10064;BME280;5071;52.360;13.134;2022-12-05T13:15:51;101364.81;;;3.66;100.00
10064;BME280;5071;52.360;13.134;2022-12-05T13:20:57;101361.25;;;3.62;100.00
10064;BME280;5071;52.360;13.134;2022-12-05T13:26:06;101367.53;;;3.69;100.00
10064;BME280;5071;52.360;13.134;2022-12-05T13:31:11;101371.84;;;3.67;100.00
10064;BME280;5071;52.360;13.134;2022-12-05T13:36:15;101358.84;;;3.72;100.00
10064;BME280;5071;52.360;13.134;2022-12-05T13:41:19;101365.91;;;3.74;100.00
10064;BME280;5071;52.360;13.134;2022-12-05T13:46:26;101366.22;;;3.86;100.00
10064;BME280;5071;52.360;13.134;2022-12-05T13:51:32;101371.16;;;3.74;100.00
10064;BME280;5071;52.360;13.134;2022-12-05T13:56:50;101378.19;;;3.75;100.00
10064;BME280;5071;52.360;13.134;2022-12-05T14:01:55;101373.75;;;3.73;100.00
10064;BME280;5071;52.360;13.134;2022-12-05T14:06:57;101364.91;;;3.69;100.00
10064;BME280;5071;52.360;13.134;2022-12-05T14:12:28;101375.41;;;3.69;100.00
10064;BME280;5071;52.360;13.134;2022-12-05T14:17:40;101375.41;;;3.69;100.00
10064;BME280;5071;52.360;13.134;2022-12-05T14:23:07;101367.53;;;3.69;100.00
10064;BME280;5071;52.360;13.134;2022-12-05T14:28:20;101375.50;;;3.72;100.00
10064;BME280;5071;52.360;13.134;2022-12-05T14:33:29;101379.00;;;3.73;100.00
10064;BME280;5071;52.360;13.134;2022-12-05T14:38:34;101373.72;;;3.71;100.00
10064;BME280;5071;52.360;13.134;2022-12-05T14:43:38;101370.16;;;3.69;100.00
10064;BME280;5071;52.360;13.134;2022-12-05T14:48:43;101357.13;;;3.72;100.00
10064;BME280;5071;52.360;13.134;2022-12-05T14:53:49;101347.31;;;3.65;100.00
10064;BME280;5071;52.360;13.134;2022-12-05T14:58:55;101357.03;;;3.69;100.00
10064;BME280;5071;52.360;13.134;2022-12-05T15:04:07;101363.16;;;3.69;100.00
10064;BME280;5071;52.360;13.134;2022-12-05T15:09:29;101371.06;;;3.71;100.00
10064;BME280;5071;52.360;13.134;2022-12-05T15:14:44;101364.13;;;3.73;100.00
10064;BME280;5071;52.360;13.134;2022-12-05T15:19:52;101374.72;;;3.76;100.00
10064;BME280;5071;52.360;13.134;2022-12-05T15:24:57;101365.09;;;3.77;100.00
10064;BME280;5071;52.360;13.134;2022-12-05T15:29:59;101380.06;;;3.79;100.00
10064;BME280;5071;52.360;13.134;2022-12-05T15:35:05;101380.06;;;3.79;100.00
10064;BME280;5071;52.360;13.134;2022-12-05T15:40:11;101389.69;;;3.80;100.00
10064;BME280;5071;52.360;13.134;2022-12-05T15:45:19;101390.84;;;3.92;100.00
10064;BME280;5071;52.360;13.134;2022-12-05T15:50:31;101389.94;;;3.89;100.00
10064;BME280;5071;52.360;13.134;2022-12-05T15:55:37;101392.47;;;3.85;100.00
10064;BME280;5071;52.360;13.134;2022-12-05T16:00:44;101383.44;;;3.75;100.00
10064;BME280;5071;52.360;13.134;2022-12-05T16:05:53;101396.00;;;3.87;100.00
10064;BME280;5071;52.360;13.134;2022-12-05T16:10:56;101395.09;;;3.85;100.00
10064;BME280;5071;52.360;13.134;2022-12-05T16:15:58;101398.63;;;3.87;100.00
10064;BME280;5071;52.360;13.134;2022-12-05T16:21:29;101389.78;;;3.83;100.00
10064;BME280;5071;52.360;13.134;2022-12-05T16:26:39;101393.34;;;3.85;100.00
10064;BME280;5071;52.360;13.134;2022-12-05T16:31:42;101388.91;;;3.84;100.00
10064;BME280;5071;52.360;13.134;2022-12-05T16:36:47;101383.66;;;3.84;100.00
10064;BME280;5071;52.360;13.134;2022-12-05T16:41:50;101383.66;;;3.84;100.00
10064;BME280;5071;52.360;13.134;2022-12-05T16:46:53;101387.16;;;3.83;100.00
10064;BME280;5071;52.360;13.134;2022-12-05T16:52:01;101372.19;;;3.81;100.00
10064;BME280;5071;52.360;13.134;2022-12-05T16:57:04;101381.97;;;3.86;100.00
10064;BME280;5071;52.360;13.134;2022-12-05T17:02:10;101381.91;;;3.83;100.00
10064;BME280;5071;52.360;13.134;2022-12-05T17:07:15;101383.66;;;3.84;100.00
10064;BME280;5071;52.360;13.134;2022-12-05T17:12:20;101387.16;;;3.83;100.00
10064;BME280;5071;52.360;13.134;2022-12-05T17:17:23;101385.47;;;3.85;100.00
10064;BME280;5071;52.360;13.134;2022-12-05T17:22:27;101388.03;;;3.84;100.00
10064;BME280;5071;52.360;13.134;2022-12-05T17:27:30;101384.44;;;3.80;100.00
10064;BME280;5071;52.360;13.134;2022-12-05T17:32:32;101380.94;;;3.80;100.00
10064;BME280;5071;52.360;13.134;2022-12-05T17:37:36;101374.00;;;3.82;100.00
10064;BME280;5071;52.360;13.134;2022-12-05T17:42:38;101385.19;;;3.75;100.00
10064;BME280;5071;52.360;13.134;2022-12-05T17:47:42;101388.69;;;3.75;100.00
10064;BME280;5071;52.360;13.134;2022-12-05T17:52:46;101385.22;;;3.76;100.00
10064;BME280;5071;52.360;13.134;2022-12-05T17:57:48;101394.81;;;3.74;100.00
10064;BME280;5071;52.360;13.134;2022-12-05T18:02:51;101375.16;;;3.60;100.00
10064;BME280;5071;52.360;13.134;2022-12-05T18:07:56;101391.06;;;3.64;100.00
10064;BME280;5071;52.360;13.134;2022-12-05T18:12:58;101399.66;;;3.60;100.00
10064;BME280;5071;52.360;13.134;2022-12-05T18:18:01;101397.75;;;3.55;100.00
10064;BME280;5071;52.360;13.134;2022-12-05T18:23:05;101389.84;;;3.52;100.00
10064;BME280;5071;52.360;13.134;2022-12-05T18:28:08;101390.63;;;3.49;100.00
10064;BME280;5071;52.360;13.134;2022-12-05T18:33:10;101402.72;;;3.77;100.00
10064;BME280;5071;52.360;13.134;2022-12-05T18:38:14;101398.69;;;3.90;100.00
10064;BME280;5071;52.360;13.134;2022-12-05T18:43:16;101399.19;;;4.10;100.00
10064;BME280;5071;52.360;13.134;2022-12-05T18:48:18;101396.38;;;4.02;100.00
10064;BME280;5071;52.360;13.134;2022-12-05T18:53:42;101390.16;;;4.34;100.00
10064;BME280;5071;52.360;13.134;2022-12-05T18:58:51;101401.47;;;4.31;100.00
10064;BME280;5071;52.360;13.134;2022-12-05T19:03:55;101405.38;;;4.12;100.00
10064;BME280;5071;52.360;13.134;2022-12-05T19:09:01;101406.66;;;4.28;100.00
10064;BME280;5071;52.360;13.134;2022-12-05T19:14:04;101418.59;;;4.15;100.00
10064;BME280;5071;52.360;13.134;2022-12-05T19:19:07;101400.59;;;3.96;100.00
10064;BME280;5071;52.360;13.134;2022-12-05T19:24:15;101409.53;;;4.02;100.00
10064;BME280;5071;52.360;13.134;2022-12-05T19:29:17;101407.44;;;3.89;100.00
10064;BME280;5071;52.360;13.134;2022-12-05T19:34:19;101420.63;;;3.92;100.00
10064;BME280;5071;52.360;13.134;2022-12-05T19:39:23;101414.34;;;3.85;100.00
10064;BME280;5071;52.360;13.134;2022-12-05T19:44:27;101418.63;;;3.82;100.00
10064;BME280;5071;52.360;13.134;2022-12-05T19:49:29;101419.56;;;3.84;100.00
10064;BME280;5071;52.360;13.134;2022-12-05T19:54:33;101429.19;;;3.83;100.00
10064;BME280;5071;52.360;13.134;2022-12-05T19:59:35;101430.09;;;3.85;100.00
10064;BME280;5071;52.360;13.134;2022-12-05T20:04:37;101425.53;;;3.78;100.00
10064;BME280;5071;52.360;13.134;2022-12-05T20:09:40;101426.38;;;3.77;100.00
10064;BME280;5071;52.360;13.134;2022-12-05T20:14:43;101430.88;;;3.81;100.00
10064;BME280;5071;52.360;13.134;2022-12-05T20:19:45;101436.81;;;3.74;100.00
10064;BME280;5071;52.360;13.134;2022-12-05T20:24:49;101434.03;;;3.68;100.00
10064;BME280;5071;52.360;13.134;2022-12-05T20:29:52;101432.13;;;3.62;100.00
10064;BME280;5071;52.360;13.134;2022-12-05T20:34:54;101428.59;;;3.62;100.00
10064;BME280;5071;52.360;13.134;2022-12-05T20:39:57;101427.00;;;3.67;100.00
10064;BME280;5071;52.360;13.134;2022-12-05T20:45:00;101427.00;;;3.67;100.00
10064;BME280;5071;52.360;13.134;2022-12-05T20:50:03;101425.91;;;3.59;100.00
10064;BME280;5071;52.360;13.134;2022-12-05T20:55:08;101431.41;;;3.69;100.00
10064;BME280;5071;52.360;13.134;2022-12-05T21:00:13;101426.31;;;3.42;100.00
10064;BME280;5071;52.360;13.134;2022-12-05T21:05:16;101418.41;;;3.41;100.00
10064;BME280;5071;52.360;13.134;2022-12-05T21:10:22;101410.66;;;3.45;100.00
10064;BME280;5071;52.360;13.134;2022-12-05T21:15:24;101413.72;;;3.29;100.00
10064;BME280;5071;52.360;13.134;2022-12-05T21:20:29;101408.19;;;3.20;100.00
10064;BME280;5071;52.360;13.134;2022-12-05T21:25:35;101414.94;;;3.11;100.00
10064;BME280;5071;52.360;13.134;2022-12-05T21:30:37;101412.28;;;3.10;100.00
10064;BME280;5071;52.360;13.134;2022-12-05T21:35:39;101410.56;;;3.10;100.00
10064;BME280;5071;52.360;13.134;2022-12-05T21:40:42;101408.69;;;3.06;100.00
10064;BME280;5071;52.360;13.134;2022-12-05T21:45:49;101413.00;;;3.04;100.00
10064;BME280;5071;52.360;13.134;2022-12-05T21:50:53;101406.78;;;3.01;100.00
10064;BME280;5071;52.360;13.134;2022-12-05T21:56:01;101395.16;;;2.91;100.00
10064;BME280;5071;52.360;13.134;2022-12-05T22:01:03;101406.72;;;2.99;100.00
10064;BME280;5071;52.360;13.134;2022-12-05T22:06:07;101408.38;;;2.96;100.00
10064;BME280;5071;52.360;13.134;2022-12-05T22:11:11;101406.56;;;2.93;100.00
10064;BME280;5071;52.360;13.134;2022-12-05T22:16:14;101407.38;;;2.92;100.00
10064;BME280;5071;52.360;13.134;2022-12-05T22:21:18;101407.34;;;2.90;100.00
10064;BME280;5071;52.360;13.134;2022-12-05T22:26:23;101401.34;;;2.95;100.00
10064;BME280;5071;52.360;13.134;2022-12-05T22:31:25;101402.16;;;2.92;100.00
10064;BME280;5071;52.360;13.134;2022-12-05T22:36:27;101395.22;;;2.94;100.00
10064;BME280;5071;52.360;13.134;2022-12-05T22:41:30;101388.22;;;2.93;100.00
10064;BME280;5071;52.360;13.134;2022-12-05T22:46:32;101385.38;;;2.87;100.00
10064;BME280;5071;52.360;13.134;2022-12-05T22:51:34;101383.53;;;2.83;100.00
10064;BME280;5071;52.360;13.134;2022-12-05T22:56:38;101373.75;;;2.77;100.00
10064;BME280;5071;52.360;13.134;2022-12-05T23:01:40;101373.91;;;2.82;100.00
10064;BME280;5071;52.360;13.134;2022-12-05T23:06:42;101369.38;;;2.76;100.00
10064;BME280;5071;52.360;13.134;2022-12-05T23:11:47;101363.13;;;2.72;100.00
10064;BME280;5071;52.360;13.134;2022-12-05T23:16:49;101349.16;;;2.73;100.00
10064;BME280;5071;52.360;13.134;2022-12-05T23:21:52;101347.41;;;2.72;100.00
10064;BME280;5071;52.360;13.134;2022-12-05T23:26:55;101355.94;;;2.65;100.00
10064;BME280;5071;52.360;13.134;2022-12-05T23:31:57;101354.88;;;2.60;100.00
10064;BME280;5071;52.360;13.134;2022-12-05T23:36:59;101352.97;;;2.55;100.00
10064;BME280;5071;52.360;13.134;2022-12-05T23:42:02;101353.78;;;2.52;100.00
10064;BME280;5071;52.360;13.134;2022-12-05T23:47:04;101347.41;;;2.44;100.00
10064;BME280;5071;52.360;13.134;2022-12-05T23:52:06;101343.19;;;2.49;100.00
10064;BME280;5071;52.360;13.134;2022-12-05T23:57:10;101330.84;;;2.45;100.00
